Time;durP1;ratioP1;P1;durP2;ratioP2;P2;SDS_P1;SDS_P2;PMS_P1;PMS_P2;Temp;Humidity;BMP_temperature;BMP_pressure;BME280_temperature;BME280_humidity;BME280_pressure;Samples;Min_cycle;Max_cycle;Signal;HPM_P1;HPM_P2
2023/09/28 00:01:12;;;;;;;20.13;15.18;;;;;;;17.57;100.00;101201.22;5082814;28;20032;-64
2023/09/28 00:03:38;;;;;;;19.48;14.60;;;;;;;17.55;100.00;101209.13;5074612;28;20056;-64
2023/09/28 00:06:03;;;;;;;21.08;14.25;;;;;;;17.50;100.00;101210.16;5072737;28;20133;-64
2023/09/28 00:08:28;;;;;;;19.35;14.50;;;;;;;17.46;100.00;101212.81;5073198;28;20029;-65
2023/09/28 00:10:54;;;;;;;19.40;14.20;;;;;;;17.44;100.00;101217.13;5073476;28;20028;-64
2023/09/28 00:13:19;;;;;;;19.40;13.75;;;;;;;17.41;100.00;101215.84;5073515;28;20100;-65
2023/09/28 00:15:46;;;;;;;20.20;14.65;;;;;;;17.38;100.00;101224.13;5055019;28;20029;-64
2023/09/28 00:18:12;;;;;;;20.27;14.27;;;;;;;17.34;100.00;101217.56;5073098;28;20021;-64
2023/09/28 00:20:38;;;;;;;19.83;14.40;;;;;;;17.28;100.00;101217.78;5067390;28;20059;-64
2023/09/28 00:23:04;;;;;;;20.83;14.15;;;;;;;17.24;100.00;101221.63;5072145;28;20033;-64
2023/09/28 00:25:29;;;;;;;20.40;13.50;;;;;;;17.23;100.00;101225.56;5065021;28;20040;-64
2023/09/28 00:27:58;;;;;;;19.65;13.73;;;;;;;17.20;100.00;101224.25;5073023;28;20028;-64
2023/09/28 00:30:26;;;;;;;21.17;13.82;;;;;;;17.15;100.00;101221.69;5071287;28;20099;-64
2023/09/28 00:32:55;;;;;;;20.08;14.30;;;;;;;17.12;100.00;101222.34;5072908;28;20115;-64
2023/09/28 00:35:22;;;;;;;20.77;13.40;;;;;;;17.06;100.00;101218.94;5071615;28;20032;-64
2023/09/28 00:37:49;;;;;;;18.15;12.98;;;;;;;17.03;100.00;101224.41;5072545;28;20046;-64
2023/09/28 00:40:19;;;;;;;19.77;13.43;;;;;;;16.97;100.00;101223.78;5072008;28;20052;-64
2023/09/28 00:42:49;;;;;;;20.02;13.70;;;;;;;16.94;100.00;101236.47;5052805;28;20061;-64
2023/09/28 00:45:15;;;;;;;19.38;13.68;;;;;;;16.94;100.00;101236.47;5051730;28;20021;-65
2023/09/28 00:47:41;;;;;;;19.50;14.15;;;;;;;16.96;100.00;101241.72;5071592;28;20040;-65
2023/09/28 00:50:11;;;;;;;19.77;13.63;;;;;;;16.96;100.00;101238.91;5073010;28;20400;-64
2023/09/28 00:52:41;;;;;;;19.25;13.27;;;;;;;16.97;100.00;101246.16;5072977;28;20056;-65
2023/09/28 00:55:08;;;;;;;19.13;13.40;;;;;;;16.97;100.00;101244.19;5070266;28;20032;-64
2023/09/28 00:57:35;;;;;;;20.05;13.57;;;;;;;16.94;100.00;101252.44;5072883;28;20037;-64
2023/09/28 01:00:23;;;;;;;19.33;14.02;;;;;;;16.96;100.00;101248.13;5072153;28;20031;-64
2023/09/28 01:02:53;;;;;;;19.25;13.55;;;;;;;16.89;100.00;101241.41;5068096;28;20044;-65
2023/09/28 01:05:20;;;;;;;19.58;12.95;;;;;;;16.85;100.00;101238.47;5068061;28;20029;-64
2023/09/28 01:07:46;;;;;;;19.70;13.45;;;;;;;16.78;100.00;101238.22;5071070;28;20050;-64
2023/09/28 01:10:20;;;;;;;19.38;13.75;;;;;;;16.74;100.00;101240.88;5092625;28;20448;-64
2023/09/28 01:12:47;;;;;;;18.65;12.82;;;;;;;16.67;100.00;101241.41;5078722;28;20037;-64
2023/09/28 01:15:12;;;;;;;19.95;12.93;;;;;;;16.64;100.00;101252.44;5072820;28;20043;-64
2023/09/28 01:17:39;;;;;;;20.45;13.57;;;;;;;16.61;100.00;101251.13;5054434;28;20032;-64
2023/09/28 01:20:23;;;;;;;20.52;13.32;;;;;;;16.56;100.00;101245.72;5072497;28;20028;-64
2023/09/28 01:22:50;;;;;;;19.55;13.45;;;;;;;16.51;100.00;101243.94;5071895;28;20095;-65
2023/09/28 01:25:21;;;;;;;20.23;14.18;;;;;;;16.45;100.00;101250.88;5063169;28;20538;-64
2023/09/28 01:27:47;;;;;;;19.13;13.43;;;;;;;16.41;100.00;101241.53;5072658;28;20057;-64
2023/09/28 01:30:13;;;;;;;19.75;13.65;;;;;;;16.40;100.00;101250.25;5061052;28;20081;-64
2023/09/28 01:32:39;;;;;;;19.90;13.75;;;;;;;16.33;100.00;101250.78;5052118;28;20346;-64
2023/09/28 01:35:06;;;;;;;20.60;13.30;;;;;;;16.28;100.00;101249.00;5064273;28;20025;-64
2023/09/28 01:37:46;;;;;;;18.80;13.88;;;;;;;16.21;100.00;101252.31;5072130;28;20107;-64
2023/09/28 01:40:13;;;;;;;18.90;13.15;;;;;;;16.18;100.00;101249.38;5072222;28;20128;-64
2023/09/28 01:42:39;;;;;;;20.00;13.73;;;;;;;16.15;100.00;101236.09;5072480;28;20384;-64
2023/09/28 01:45:05;;;;;;;19.30;13.20;;;;;;;16.13;100.00;101246.78;5072544;28;20025;-64
2023/09/28 01:47:30;;;;;;;19.67;14.18;;;;;;;16.07;100.00;101246.13;5072084;28;20056;-65
2023/09/28 01:49:55;;;;;;;19.88;13.40;;;;;;;16.06;100.00;101248.09;5072102;28;20109;-64
2023/09/28 01:52:21;;;;;;;19.40;14.50;;;;;;;16.05;100.00;101254.00;5072026;28;20025;-64
2023/09/28 01:54:46;;;;;;;19.80;13.35;;;;;;;16.05;100.00;101260.44;5071963;28;20490;-64
2023/09/28 01:57:12;;;;;;;19.23;13.85;;;;;;;16.05;100.00;101249.25;5069494;28;20032;-64
2023/09/28 01:59:37;;;;;;;20.20;14.40;;;;;;;16.01;100.00;101248.28;5054160;28;20494;-64
2023/09/28 02:02:03;;;;;;;19.10;13.40;;;;;;;16.01;100.00;101253.06;5037644;28;20036;-64
2023/09/28 02:04:28;;;;;;;21.05;13.98;;;;;;;16.04;100.00;101258.78;5068972;28;20032;-64
2023/09/28 02:06:54;;;;;;;20.35;13.82;;;;;;;16.09;100.00;101260.56;5075680;28;20442;-63
2023/09/28 02:09:19;;;;;;;19.95;13.60;;;;;;;16.13;100.00;101264.31;5077367;28;20016;-64
2023/09/28 02:11:44;;;;;;;19.45;13.73;;;;;;;16.15;100.00;101277.97;5075788;28;20029;-64
2023/09/28 02:14:12;;;;;;;21.42;14.85;;;;;;;16.15;100.00;101280.75;5071420;28;20076;-64
2023/09/28 02:16:38;;;;;;;19.67;14.55;;;;;;;16.18;100.00;101277.28;5062422;28;20091;-64
2023/09/28 02:19:04;;;;;;;19.27;14.32;;;;;;;16.20;100.00;101286.16;5069016;28;20024;-64
2023/09/28 02:21:30;;;;;;;20.17;13.93;;;;;;;16.18;100.00;101277.28;5061221;28;20029;-64
2023/09/28 02:23:56;;;;;;;19.05;14.35;;;;;;;16.17;100.00;101278.44;5054977;28;20025;-64
2023/09/28 02:26:21;;;;;;;18.70;13.63;;;;;;;16.17;100.00;101278.44;5072434;28;20025;-64
2023/09/28 02:28:48;;;;;;;20.45;14.77;;;;;;;16.15;100.00;101277.97;5056546;28;20039;-63
2023/09/28 02:31:13;;;;;;;20.13;14.57;;;;;;;16.13;100.00;101280.25;5054624;28;20025;-63
2023/09/28 02:33:39;;;;;;;20.17;14.10;;;;;;;16.06;100.00;101275.19;5075056;28;20078;-64
2023/09/28 02:36:05;;;;;;;20.95;14.13;;;;;;;16.08;100.00;101274.84;5071498;28;20055;-64
2023/09/28 02:38:30;;;;;;;22.27;14.35;;;;;;;16.02;100.00;101280.63;5055525;28;20029;-64
2023/09/28 02:40:55;;;;;;;18.77;13.85;;;;;;;15.98;100.00;101268.47;5070988;28;20452;-63
2023/09/28 02:43:21;;;;;;;19.52;14.55;;;;;;;15.95;100.00;101276.69;5070059;28;20434;-63
2023/09/28 02:45:46;;;;;;;20.65;14.15;;;;;;;15.92;100.00;101289.34;5075029;28;20056;-64
2023/09/28 02:48:12;;;;;;;19.65;14.15;;;;;;;15.86;100.00;101288.69;5069640;28;20353;-64
2023/09/28 02:50:37;;;;;;;19.65;14.57;;;;;;;15.82;100.00;101290.47;5074773;28;20442;-63
2023/09/28 02:53:03;;;;;;;19.73;14.55;;;;;;;15.78;100.00;101295.09;5069710;28;20548;-63
2023/09/28 02:55:28;;;;;;;20.65;14.20;;;;;;;15.81;100.00;101290.81;5069588;28;20036;-64
2023/09/28 02:57:54;;;;;;;21.15;14.43;;;;;;;15.79;100.00;101293.94;5072945;28;20494;-64
2023/09/28 03:00:25;;;;;;;19.73;13.95;;;;;;;15.78;100.00;101289.50;5068035;28;20056;-64
2023/09/28 03:02:56;;;;;;;19.15;13.82;;;;;;;15.79;100.00;101293.09;5073191;28;20029;-64
2023/09/28 03:05:23;;;;;;;19.88;14.07;;;;;;;15.79;100.00;101291.16;5074173;28;20037;-63
2023/09/28 03:07:49;;;;;;;20.55;14.70;;;;;;;15.76;100.00;101294.59;5066935;28;20082;-64
2023/09/28 03:10:14;;;;;;;20.83;14.38;;;;;;;15.78;100.00;101292.31;5065953;28;20099;-64
2023/09/28 03:12:40;;;;;;;21.23;15.05;;;;;;;15.78;100.00;101308.19;5074298;28;20032;-64
2023/09/28 03:15:12;;;;;;;21.20;15.10;;;;;;;15.81;100.00;101307.53;5076575;28;20316;-64
2023/09/28 03:17:38;;;;;;;19.27;14.70;;;;;;;15.81;100.00;101308.38;5064567;28;20476;-64
2023/09/28 03:20:14;;;;;;;19.75;14.85;;;;;;;15.82;100.00;101300.81;5065074;28;20029;-63
2023/09/28 03:22:40;;;;;;;19.60;14.32;;;;;;;15.83;100.00;101310.84;5036156;28;20029;-64
2023/09/28 03:25:10;;;;;;;21.05;15.10;;;;;;;15.83;100.00;101310.84;5070447;28;20069;-65
2023/09/28 03:27:35;;;;;;;21.58;14.63;;;;;;;15.84;100.00;101310.53;5068516;28;20033;-64
2023/09/28 03:30:05;;;;;;;20.30;14.50;;;;;;;15.86;100.00;101315.78;5076564;28;20035;-64
2023/09/28 03:32:30;;;;;;;22.05;15.15;;;;;;;15.86;100.00;101319.38;5065558;28;20043;-63
2023/09/28 03:34:55;;;;;;;19.70;14.73;;;;;;;15.87;100.00;101323.81;5048087;28;20017;-64
2023/09/28 03:37:21;;;;;;;20.08;14.73;;;;;;;15.85;100.00;101317.75;5072584;28;20081;-64
2023/09/28 03:39:46;;;;;;;20.52;14.93;;;;;;;15.88;100.00;101325.47;5060003;28;20106;-64
2023/09/28 03:42:12;;;;;;;20.67;14.93;;;;;;;15.88;100.00;101330.19;5070225;28;20463;-63
2023/09/28 03:44:37;;;;;;;20.77;14.60;;;;;;;15.89;100.00;101337.44;5062508;28;20029;-64
2023/09/28 03:47:02;;;;;;;22.13;15.30;;;;;;;15.90;100.00;101341.88;5072851;28;20036;-65
2023/09/28 03:49:28;;;;;;;20.80;14.80;;;;;;;15.92;100.00;101355.50;5061256;28;20033;-63
2023/09/28 03:51:53;;;;;;;20.20;15.05;;;;;;;15.91;100.00;101354.66;5073993;28;20512;-64
2023/09/28 03:54:18;;;;;;;21.13;15.35;;;;;;;15.89;100.00;101352.22;5065470;28;20078;-64
2023/09/28 03:56:44;;;;;;;21.67;15.50;;;;;;;15.86;100.00;101357.63;5071768;28;20032;-64
2023/09/28 03:59:09;;;;;;;21.25;15.15;;;;;;;15.83;100.00;101361.84;5064298;28;20052;-64
2023/09/28 04:01:34;;;;;;;20.38;14.93;;;;;;;15.82;100.00;101362.19;5069671;28;20388;-64
2023/09/28 04:04:00;;;;;;;21.75;15.52;;;;;;;15.80;100.00;101361.69;5073192;28;20448;-64
2023/09/28 04:06:25;;;;;;;21.42;15.82;;;;;;;15.75;100.00;101368.25;5073740;28;20053;-64
2023/09/28 04:08:50;;;;;;;22.02;15.05;;;;;;;15.71;100.00;101364.50;5055426;28;20016;-65
2023/09/28 04:11:16;;;;;;;22.00;15.82;;;;;;;15.67;100.00;101369.94;5073453;28;20025;-65
2023/09/28 04:13:41;;;;;;;20.75;16.00;;;;;;;15.65;100.00;101363.00;5071981;28;20456;-64
2023/09/28 04:16:07;;;;;;;23.80;15.95;;;;;;;15.60;100.00;101358.41;5063361;28;20106;-65
2023/09/28 04:18:32;;;;;;;21.65;16.48;;;;;;;15.56;100.00;101355.47;5065292;28;20030;-64
2023/09/28 04:20:57;;;;;;;20.45;15.75;;;;;;;15.52;100.00;101362.03;5070917;28;20043;-64
2023/09/28 04:23:23;;;;;;;22.60;16.25;;;;;;;15.48;100.00;101358.28;5065841;28;20072;-64
2023/09/28 04:25:48;;;;;;;21.60;16.17;;;;;;;15.43;100.00;101368.41;5067966;28;20031;-64
2023/09/28 04:28:13;;;;;;;21.23;15.57;;;;;;;15.38;100.00;101368.59;5062529;28;20036;-65
2023/09/28 04:30:39;;;;;;;20.77;15.95;;;;;;;15.31;100.00;101364.63;5071128;28;20036;-64
2023/09/28 04:33:04;;;;;;;21.65;15.98;;;;;;;15.30;100.00;101363.84;5067014;28;20047;-64
2023/09/28 04:35:30;;;;;;;22.35;16.40;;;;;;;15.27;100.00;101358.91;5073226;28;20461;-64
2023/09/28 04:37:55;;;;;;;23.83;16.77;;;;;;;15.25;100.00;101363.97;5060721;28;20032;-64
2023/09/28 04:40:24;;;;;;;21.42;16.45;;;;;;;15.23;100.00;101352.31;5063367;28;20055;-65
2023/09/28 04:42:50;;;;;;;20.80;16.60;;;;;;;15.20;100.00;101370.53;5064945;28;20028;-64
2023/09/28 04:45:15;;;;;;;22.95;16.40;;;;;;;15.20;100.00;101378.06;5055069;28;20024;-64
2023/09/28 04:47:42;;;;;;;21.52;17.13;;;;;;;15.20;100.00;101375.28;5070882;28;20039;-65
2023/09/28 04:50:08;;;;;;;21.13;16.35;;;;;;;15.20;100.00;101367.75;5061732;28;20035;-65
2023/09/28 04:52:34;;;;;;;22.98;17.08;;;;;;;15.18;100.00;101372.81;5062917;28;20029;-64
2023/09/28 04:54:59;;;;;;;21.58;16.10;;;;;;;15.15;100.00;101375.44;5048170;28;20036;-64
2023/09/28 04:57:25;;;;;;;23.40;17.30;;;;;;;15.12;100.00;101379.69;5057367;28;20029;-64
2023/09/28 04:59:50;;;;;;;21.77;16.70;;;;;;;15.08;100.00;101379.53;5066344;28;20029;-64
2023/09/28 05:02:17;;;;;;;22.00;16.85;;;;;;;15.05;100.00;101385.72;5064823;28;20090;-65
2023/09/28 05:04:42;;;;;;;22.08;17.23;;;;;;;14.98;100.00;101388.97;5058960;28;20035;-64
2023/09/28 05:07:08;;;;;;;23.48;17.52;;;;;;;15.01;100.00;101401.47;5053358;28;20115;-65
2023/09/28 05:09:33;;;;;;;22.70;16.83;;;;;;;14.98;100.00;101408.50;5068135;28;20040;-64
2023/09/28 05:12:00;;;;;;;22.50;17.40;;;;;;;14.97;100.00;101409.63;5071208;28;20064;-65
2023/09/28 05:14:26;;;;;;;22.88;17.33;;;;;;;14.94;100.00;101415.03;5071705;28;20029;-64
2023/09/28 05:16:53;;;;;;;23.00;17.70;;;;;;;14.92;100.00;101426.50;5060498;28;20029;-65
2023/09/28 05:19:19;;;;;;;23.00;17.27;;;;;;;14.90;100.00;101430.75;5057227;28;20039;-64
2023/09/28 05:21:44;;;;;;;23.80;17.60;;;;;;;14.87;100.00;101436.97;5082744;28;20024;-64
2023/09/28 05:24:10;;;;;;;21.55;17.67;;;;;;;14.86;100.00;101436.16;5070280;28;20028;-64
2023/09/28 05:26:35;;;;;;;22.95;16.52;;;;;;;14.84;100.00;101434.81;5066635;28;20025;-64
2023/09/28 05:29:00;;;;;;;22.60;17.25;;;;;;;14.81;100.00;101436.28;5067894;28;20185;-64
2023/09/28 05:31:26;;;;;;;23.85;16.98;;;;;;;14.79;100.00;101435.78;5067348;28;20088;-64
2023/09/28 05:33:51;;;;;;;21.70;16.77;;;;;;;14.77;100.00;101441.66;5073733;28;20039;-64
2023/09/28 05:36:17;;;;;;;21.25;17.13;;;;;;;14.76;100.00;101450.34;5070843;28;20044;-64
2023/09/28 05:38:42;;;;;;;24.13;17.05;;;;;;;14.75;100.00;101449.53;5061259;28;20119;-64
2023/09/28 05:41:07;;;;;;;22.60;16.60;;;;;;;14.76;100.00;101451.16;5065267;28;20453;-64
2023/09/28 05:43:32;;;;;;;23.27;16.50;;;;;;;14.76;100.00;101445.59;5061975;28;20036;-64
2023/09/28 05:45:58;;;;;;;21.73;15.75;;;;;;;14.77;100.00;101457.56;5058459;28;20029;-64
2023/09/28 05:48:24;;;;;;;26.58;16.13;;;;;;;14.76;100.00;101462.31;5061734;28;20040;-63
2023/09/28 05:50:49;;;;;;;23.08;15.98;;;;;;;14.79;100.00;101472.81;5059520;28;20028;-63
2023/09/28 05:53:15;;;;;;;21.98;16.48;;;;;;;14.80;100.00;101482.81;5075505;28;20033;-64
2023/09/28 05:55:40;;;;;;;23.90;15.77;;;;;;;14.81;100.00;101473.31;5072726;28;20056;-64
2023/09/28 05:58:05;;;;;;;24.20;15.70;;;;;;;14.84;100.00;101474.66;5073598;28;20071;-64
2023/09/28 06:00:31;;;;;;;23.17;16.20;;;;;;;14.86;100.00;101486.28;5058954;28;20364;-64
2023/09/28 06:02:56;;;;;;;24.85;16.40;;;;;;;14.88;100.00;101488.75;5073128;28;20077;-65
2023/09/28 06:05:22;;;;;;;22.58;15.30;;;;;;;14.88;100.00;101503.47;5066272;28;20131;-64
2023/09/28 06:07:47;;;;;;;23.38;14.90;;;;;;;14.88;100.00;101506.28;5072913;28;20078;-63
2023/09/28 06:10:13;;;;;;;23.38;15.27;;;;;;;14.89;100.00;101507.91;5074401;28;20024;-63
2023/09/28 06:12:38;;;;;;;21.55;15.05;;;;;;;14.90;100.00;101500.41;5072660;28;20032;-63
2023/09/28 06:15:05;;;;;;;22.42;15.55;;;;;;;14.88;100.00;101497.91;5073666;28;20032;-63
2023/09/28 06:17:31;;;;;;;23.48;16.15;;;;;;;14.87;100.00;101499.09;5057456;28;20472;-63
2023/09/28 06:19:56;;;;;;;24.13;15.80;;;;;;;14.86;100.00;101491.03;5067792;28;20047;-63
2023/09/28 06:22:21;;;;;;;23.10;15.30;;;;;;;14.84;100.00;101502.50;5063332;28;20029;-62
2023/09/28 06:24:47;;;;;;;23.17;15.70;;;;;;;14.82;100.00;101500.03;5056604;28;20515;-62
2023/09/28 06:27:12;;;;;;;21.52;15.50;;;;;;;14.82;100.00;101500.03;5071790;28;20065;-63
2023/09/28 06:29:37;;;;;;;21.83;15.10;;;;;;;14.86;100.00;101500.22;5058471;28;20027;-63
2023/09/28 06:32:04;;;;;;;20.80;15.02;;;;;;;14.86;100.00;101502.16;5071722;28;20101;-61
2023/09/28 06:34:29;;;;;;;21.77;15.70;;;;;;;14.87;100.00;101510.22;5055223;28;20055;-62
2023/09/28 06:36:54;;;;;;;21.98;15.30;;;;;;;14.90;100.00;101522.69;5084106;28;20454;-62
2023/09/28 06:39:20;;;;;;;26.00;15.25;;;;;;;14.92;100.00;101528.75;5066740;28;20184;-62
2023/09/28 06:41:45;;;;;;;22.83;15.25;;;;;;;14.93;100.00;101522.03;5064485;28;20238;-63
2023/09/28 06:44:10;;;;;;;22.98;15.98;;;;;;;14.94;100.00;101529.25;5063471;28;20380;-63
2023/09/28 06:46:37;;;;;;;23.38;16.02;;;;;;;14.97;100.00;101531.41;5075171;28;20081;-63
2023/09/28 06:49:05;;;;;;;25.77;16.48;;;;;;;15.01;100.00;101520.44;5068557;28;20094;-63
2023/09/28 06:51:30;;;;;;;23.75;15.80;;;;;;;15.01;100.00;101518.50;5073414;28;20789;-63
2023/09/28 06:53:56;;;;;;;24.10;15.75;;;;;;;15.05;100.00;101529.81;5061698;28;20116;-63
2023/09/28 06:56:21;;;;;;;23.33;15.10;;;;;;;15.07;100.00;101530.28;5071321;28;20024;-63
2023/09/28 06:58:46;;;;;;;24.50;15.70;;;;;;;15.10;100.00;101535.25;5067361;28;20025;-63
2023/09/28 07:01:12;;;;;;;24.20;16.00;;;;;;;15.12;100.00;101544.91;5064870;28;20626;-63
2023/09/28 07:03:37;;;;;;;24.63;15.77;;;;;;;15.19;100.00;101549.22;5058376;28;20075;-64
2023/09/28 07:06:04;;;;;;;24.23;15.20;;;;;;;15.24;100.00;101543.50;5066897;28;20025;-63
2023/09/28 07:08:29;;;;;;;26.25;15.00;;;;;;;15.29;100.00;101555.34;5073126;28;20488;-63
2023/09/28 07:10:54;;;;;;;23.30;15.07;;;;;;;15.35;100.00;101569.16;5072853;28;20025;-63
2023/09/28 07:13:20;;;;;;;24.52;15.23;;;;;;;15.41;100.00;101568.66;5072936;28;20116;-64
2023/09/28 07:15:45;;;;;;;25.38;14.57;;;;;;;15.50;100.00;101565.91;5072707;28;20041;-64
2023/09/28 07:18:10;;;;;;;25.42;13.88;;;;;;;15.54;100.00;101549.34;5054611;28;20033;-63
2023/09/28 07:20:38;;;;;;;25.10;13.25;;;;;;;15.66;100.00;101557.94;5072793;28;20417;-63
2023/09/28 07:23:04;;;;;;;24.70;13.27;;;;;;;15.74;100.00;101557.13;5072466;28;20040;-63
2023/09/28 07:25:29;;;;;;;25.13;13.40;;;;;;;15.81;100.00;101541.88;5072903;28;20482;-63
2023/09/28 07:27:55;;;;;;;26.05;13.32;;;;;;;15.85;100.00;101548.50;5070265;28;20035;-63
2023/09/28 07:30:22;;;;;;;23.55;12.88;;;;;;;15.88;100.00;101553.41;5092693;28;20336;-63
2023/09/28 07:32:48;;;;;;;22.88;12.88;;;;;;;15.86;100.00;101539.78;5077835;28;20501;-63
2023/09/28 07:35:15;;;;;;;26.48;13.20;;;;;;;15.86;100.00;101544.56;5054296;28;20385;-63
2023/09/28 07:37:44;;;;;;;27.30;12.52;;;;;;;15.85;100.00;101554.88;5067319;28;20519;-63
2023/09/28 07:40:12;;;;;;;27.33;12.95;;;;;;;15.86;100.00;101570.47;5060798;28;20132;-63
2023/09/28 07:42:41;;;;;;;26.83;12.80;;;;;;;15.93;100.00;101577.53;5085398;28;20024;-63
2023/09/28 07:45:07;;;;;;;26.13;12.60;;;;;;;15.98;100.00;101583.78;5061517;28;20029;-63
2023/09/28 07:47:33;;;;;;;25.95;13.00;;;;;;;16.03;100.00;101580.03;5064291;28;20465;-63
2023/09/28 07:49:59;;;;;;;24.50;12.50;;;;;;;16.10;100.00;101573.97;5072564;28;20122;-63
2023/09/28 07:52:24;;;;;;;27.02;12.02;;;;;;;16.15;100.00;101587.78;5072540;28;20460;-63
2023/09/28 07:54:50;;;;;;;30.35;12.52;;;;;;;16.16;100.00;101593.03;5071847;28;20020;-63
2023/09/28 07:57:15;;;;;;;23.80;12.20;;;;;;;16.22;100.00;101602.06;5071511;28;20472;-64
2023/09/28 07:59:40;;;;;;;26.70;12.82;;;;;;;16.29;100.00;101599.63;5072051;28;20448;-63
2023/09/28 08:02:09;;;;;;;27.63;12.65;;;;;;;16.32;100.00;101598.13;5071815;28;20070;-63
2023/09/28 08:04:36;;;;;;;25.27;12.77;;;;;;;16.41;100.00;101612.09;5072112;28;20032;-63
2023/09/28 08:07:01;;;;;;;26.65;12.07;;;;;;;16.46;100.00;101612.78;5076412;28;20024;-63
2023/09/28 08:09:27;;;;;;;24.88;11.95;;;;;;;16.52;100.00;101622.63;5071818;28;20095;-63
2023/09/28 08:11:52;;;;;;;28.60;12.50;;;;;;;16.59;100.00;101613.75;5063299;28;20072;-63
2023/09/28 08:14:18;;;;;;;26.15;13.10;;;;;;;16.65;100.00;101603.25;5058308;28;20029;-63
2023/09/28 08:16:48;;;;;;;25.27;12.52;;;;;;;16.69;100.00;101613.44;5061597;28;20028;-62
2023/09/28 08:19:14;;;;;;;26.42;12.45;;;;;;;16.75;100.00;101616.03;5060630;28;20029;-63
2023/09/28 08:21:40;;;;;;;26.98;12.75;;;;;;;16.79;100.00;101622.63;5056484;28;20472;-63
2023/09/28 08:24:07;;;;;;;27.85;12.93;;;;;;;16.84;100.00;101628.03;5061404;28;20112;-63
2023/09/28 08:26:33;;;;;;;27.30;12.20;;;;;;;16.88;100.00;101614.22;5059048;28;20021;-63
2023/09/28 08:28:59;;;;;;;27.45;12.68;;;;;;;16.95;100.00;101615.41;5065044;28;20039;-64
2023/09/28 08:31:25;;;;;;;27.30;12.70;;;;;;;17.04;100.00;101620.16;5054188;28;20025;-63
2023/09/28 08:33:51;;;;;;;28.98;12.88;;;;;;;17.07;100.00;101613.91;5077703;28;20031;-63
2023/09/28 08:36:16;;;;;;;24.73;12.35;;;;;;;17.14;100.00;101631.78;5061627;28;20064;-63
2023/09/28 08:38:42;;;;;;;28.08;12.40;;;;;;;17.23;100.00;101626.19;5056368;28;20096;-63
2023/09/28 08:41:09;;;;;;;29.35;13.95;;;;;;;17.36;100.00;101620.75;5062718;28;20047;-62
2023/09/28 08:43:43;;;;;;;26.38;13.05;;;;;;;17.53;100.00;101626.28;5072736;28;20107;-63
2023/09/28 08:46:11;;;;;;;25.77;15.07;;;;;;;17.67;100.00;101644.78;5072474;28;20029;-63
2023/09/28 08:48:45;;;;;;;27.80;17.27;;;;;;;17.73;100.00;101643.47;5054505;28;20028;-63
2023/09/28 08:51:11;;;;;;;25.70;13.82;;;;;;;17.78;100.00;101663.69;5072238;28;20075;-63
2023/09/28 08:53:38;;;;;;;28.10;18.23;;;;;;;17.79;100.00;101658.91;5072001;28;20021;-63
2023/09/28 08:56:05;;;;;;;28.05;20.23;;;;;;;17.80;100.00;101657.75;5072256;28;20103;-63
2023/09/28 08:58:34;;;;;;;32.40;24.95;;;;;;;17.82;100.00;101666.66;5072736;28;20103;-62
2023/09/28 09:01:00;;;;;;;25.88;15.75;;;;;;;17.90;100.00;101660.19;5072353;28;20044;-63
2023/09/28 09:03:27;;;;;;;26.60;17.13;;;;;;;18.06;99.20;101663.28;5072294;28;20079;-63
2023/09/28 09:05:55;;;;;;;26.95;14.77;;;;;;;18.14;98.12;101663.56;5054467;28;20048;-63
2023/09/28 09:08:25;;;;;;;26.50;14.98;;;;;;;18.11;96.17;101656.66;5071548;28;20028;-63
2023/09/28 09:10:51;;;;;;;27.00;13.13;;;;;;;17.97;96.55;101662.50;5072504;28;20114;-63
2023/09/28 09:13:19;;;;;;;27.50;15.35;;;;;;;17.92;97.18;101668.22;5072674;28;20032;-63
2023/09/28 09:15:45;;;;;;;28.25;13.70;;;;;;;17.88;97.42;101654.09;5072487;28;20039;-63
2023/09/28 09:18:21;;;;;;;26.10;13.63;;;;;;;17.89;96.96;101663.34;5072116;28;20021;-63
2023/09/28 09:20:48;;;;;;;26.15;13.75;;;;;;;17.84;95.84;101652.31;5072183;28;20037;-63
2023/09/28 09:23:15;;;;;;;25.42;13.70;;;;;;;17.81;96.17;101661.38;5072228;28;20043;-63
2023/09/28 09:25:44;;;;;;;26.98;17.48;;;;;;;17.79;96.54;101664.50;5072219;28;20025;-63
2023/09/28 09:28:12;;;;;;;29.58;15.88;;;;;;;17.88;95.58;101659.69;5072512;28;20067;-63
2023/09/28 09:30:37;;;;;;;30.95;17.95;;;;;;;17.95;95.35;101659.19;5072099;28;20036;-63
2023/09/28 09:33:06;;;;;;;26.30;13.60;;;;;;;18.02;94.81;101662.28;5071943;28;20074;-63
2023/09/28 09:35:33;;;;;;;27.10;16.15;;;;;;;18.11;94.30;101662.25;5072624;28;20028;-63
2023/09/28 09:37:59;;;;;;;24.50;13.57;;;;;;;18.15;93.23;101671.59;5072327;28;20069;-62
2023/09/28 09:40:25;;;;;;;27.20;15.60;;;;;;;18.30;93.02;101673.00;5072407;28;20056;-63
2023/09/28 09:42:51;;;;;;;28.48;17.88;;;;;;;18.43;93.34;101675.91;5072178;28;20115;-63
2023/09/28 09:45:18;;;;;;;27.42;16.45;;;;;;;18.53;92.46;101678.31;5071676;28;20159;-63
2023/09/28 09:47:48;;;;;;;28.10;14.05;;;;;;;18.53;91.10;101678.31;5072269;28;20025;-62
2023/09/28 09:50:15;;;;;;;26.35;13.15;;;;;;;18.42;90.93;101666.66;5072077;28;20033;-63
2023/09/28 09:52:43;;;;;;;26.10;14.05;;;;;;;18.42;91.77;101672.25;5072136;28;20051;-62
2023/09/28 09:55:09;;;;;;;30.67;14.65;;;;;;;18.38;91.55;101669.31;5072292;28;20405;-62
2023/09/28 09:57:37;;;;;;;25.85;14.10;;;;;;;18.37;91.45;101673.28;5063602;28;20032;-63
2023/09/28 10:00:07;;;;;;;27.15;15.10;;;;;;;18.36;89.78;101682.88;5063294;28;20142;-62
2023/09/28 10:02:39;;;;;;;25.42;13.88;;;;;;;18.37;90.42;101666.88;5061591;28;20057;-62
2023/09/28 10:05:08;;;;;;;27.10;12.55;;;;;;;18.38;88.14;101665.72;5064129;28;20025;-62
2023/09/28 10:07:37;;;;;;;25.23;12.35;;;;;;;18.47;87.55;101686.09;5071742;28;20043;-62
2023/09/28 10:10:05;;;;;;;24.02;11.73;;;;;;;18.52;88.07;101668.25;5058741;28;20036;-62
2023/09/28 10:12:30;;;;;;;26.92;12.98;;;;;;;18.59;88.65;101665.72;5050156;28;20460;-62
2023/09/28 10:15:00;;;;;;;26.65;11.75;;;;;;;18.59;88.39;101670.50;5050477;28;20035;-62
2023/09/28 10:17:26;;;;;;;25.60;12.43;;;;;;;18.53;87.30;101665.09;5050387;28;20025;-63
2023/09/28 10:20:00;;;;;;;24.02;11.32;;;;;;;18.62;87.94;101655.81;5053241;28;20029;-62
2023/09/28 10:22:25;;;;;;;23.20;12.57;;;;;;;18.71;88.18;101648.13;5053685;28;20043;-62
2023/09/28 10:24:51;;;;;;;27.65;11.98;;;;;;;18.90;88.71;101646.81;5053644;28;20029;-62
2023/09/28 10:27:17;;;;;;;27.20;12.20;;;;;;;18.96;85.69;101637.09;5053849;28;20119;-63
2023/09/28 10:29:42;;;;;;;21.60;11.65;;;;;;;19.01;86.68;101634.06;5053661;28;20029;-63
2023/09/28 10:32:27;;;;;;;24.48;11.43;;;;;;;19.18;87.80;101628.25;5053716;28;20052;-62
2023/09/28 10:35:23;;;;;;;26.20;12.15;;;;;;;19.29;86.35;101650.25;5053685;28;20021;-63
2023/09/28 10:38:20;;;;;;;25.33;12.13;;;;;;;19.36;87.16;101638.47;5053849;28;20047;-63
2023/09/28 10:41:05;;;;;;;26.77;12.98;;;;;;;19.51;85.86;101637.81;5053271;28;20051;-63
2023/09/28 10:43:34;;;;;;;27.02;11.63;;;;;;;19.58;83.97;101638.06;5053736;28;20794;-64
2023/09/28 10:46:03;;;;;;;25.33;11.80;;;;;;;19.62;82.88;101653.03;5053575;28;20021;-63
2023/09/28 10:48:44;;;;;;;24.55;11.43;;;;;;;19.64;83.05;101655.50;5053236;28;20037;-64
2023/09/28 10:51:16;;;;;;;27.40;11.25;;;;;;;19.51;83.26;101651.81;5053394;28;20068;-64
2023/09/28 10:53:43;;;;;;;23.52;11.95;;;;;;;19.45;84.61;101658.84;5044866;28;20055;-63
2023/09/28 10:56:10;;;;;;;25.85;12.43;;;;;;;19.42;83.94;101659.53;5056013;28;20039;-63
2023/09/28 10:58:36;;;;;;;28.38;12.30;;;;;;;19.52;84.46;101656.28;5073198;28;20485;-63
2023/09/28 11:01:06;;;;;;;25.17;11.48;;;;;;;19.70;82.82;101664.47;5067448;28;20038;-64